Time;durP1;ratioP1;P1;durP2;ratioP2;P2;SDS_P1;SDS_P2;PMS_P1;PMS_P2;Temp;Humidity;BMP_temperature;BMP_pressure;BME280_temperature;BME280_humidity;BME280_pressure;Samples;Min_cycle;Max_cycle;Signal;HPM_P1;HPM_P2
2022/10/12 00:00:05;;;;;;;6.05;1.30;;;20.70;89.60;;;;;;5063669;28;20104;-63
2022/10/12 00:02:32;;;;;;;3.28;1.02;;;20.70;90.70;;;;;;5056439;28;20024;-66
2022/10/12 00:04:59;;;;;;;4.22;1.30;;;21.60;91.10;;;;;;5054918;28;20498;-64
2022/10/12 00:07:26;;;;;;;4.70;1.30;;;22.40;88.30;;;;;;5062661;28;20058;-63
2022/10/12 00:09:54;;;;;;;6.90;1.70;;;23.40;83.40;;;;;;5043487;28;20024;-64
2022/10/12 00:12:21;;;;;;;2.53;1.90;;;24.10;79.90;;;;;;5060860;28;20025;-64
2022/10/12 00:14:48;;;;;;;3.08;0.77;;;24.70;72.90;;;;;;5050010;28;20094;-62
2022/10/12 00:17:16;;;;;;;2.00;0.90;;;24.50;71.80;;;;;;5063357;28;20085;-65
2022/10/12 00:19:43;;;;;;;5.82;1.02;;;24.50;72.30;;;;;;5051324;28;20028;-64
2022/10/12 00:22:10;;;;;;;5.13;1.27;;;24.00;70.70;;;;;;5061372;28;20028;-68
2022/10/12 00:24:38;;;;;;;2.65;1.40;;;23.60;77.00;;;;;;5058194;28;20857;-65
2022/10/12 00:27:05;;;;;;;2.05;0.90;;;23.50;74.00;;;;;;5055812;28;20075;-66
2022/10/12 00:29:33;;;;;;;2.88;0.88;;;23.40;76.20;;;;;;5056929;28;20047;-67
2022/10/12 00:32:00;;;;;;;7.15;1.08;;;23.40;77.30;;;;;;5055274;28;20052;-67
2022/10/12 00:34:31;;;;;;;2.92;0.93;;;23.20;73.00;;;;;;5051647;28;20014;-66
2022/10/12 00:36:58;;;;;;;3.53;1.10;;;23.10;77.00;;;;;;5096955;28;20034;-68
2022/10/12 00:39:25;;;;;;;10.13;1.83;;;23.20;79.30;;;;;;5070945;28;20074;-65
2022/10/12 00:41:53;;;;;;;3.05;1.17;;;23.40;79.50;;;;;;5053226;28;20187;-65
2022/10/12 00:44:38;;;;;;;2.30;0.98;;;23.60;75.30;;;;;;5056430;28;20048;-66
2022/10/12 00:47:43;;;;;;;1.67;0.90;;;24.00;78.70;;;;;;5044965;28;20079;-67
2022/10/12 00:50:16;;;;;;;3.97;1.00;;;24.10;75.40;;;;;;5043679;28;20049;-66
2022/10/12 00:52:47;;;;;;;1.70;0.80;;;24.30;75.00;;;;;;5055372;28;20078;-66
2022/10/12 00:55:19;;;;;;;4.43;1.10;;;24.70;74.20;;;;;;5052801;28;20112;-68
2022/10/12 00:57:52;;;;;;;4.70;0.93;;;24.80;72.30;;;;;;5050874;28;20052;-67
2022/10/12 01:00:22;;;;;;;3.58;1.27;;;25.00;72.50;;;;;;5059931;28;20482;-67
2022/10/12 01:02:51;;;;;;;1.73;0.90;;;25.30;72.00;;;;;;5046008;28;20029;-67
2022/10/12 01:05:20;;;;;;;3.08;0.73;;;25.10;69.10;;;;;;5049943;28;20032;-67
2022/10/12 01:07:47;;;;;;;2.83;0.90;;;24.50;68.50;;;;;;5054336;28;20032;-67
2022/10/12 01:10:15;;;;;;;2.65;0.80;;;24.20;71.20;;;;;;5051479;28;20024;-66
2022/10/12 01:12:44;;;;;;;2.60;1.00;;;24.10;69.60;;;;;;5038275;28;20061;-65
2022/10/12 01:15:12;;;;;;;3.15;0.95;;;24.20;73.90;;;;;;5043841;28;20387;-66
2022/10/12 01:17:51;;;;;;;4.40;0.98;;;24.20;71.60;;;;;;5050399;28;20032;-67
2022/10/12 01:20:37;;;;;;;2.95;1.08;;;24.40;71.30;;;;;;5054714;28;20482;-67
2022/10/12 01:23:35;;;;;;;2.08;0.90;;;24.30;71.80;;;;;;5059252;28;20592;-67
2022/10/12 01:26:26;;;;;;;4.40;1.17;;;24.30;72.50;;;;;;5053772;28;20435;-68
2022/10/12 01:28:54;;;;;;;2.35;1.00;;;24.50;73.10;;;;;;5052034;28;20184;-66
2022/10/12 01:31:24;;;;;;;2.13;0.90;;;24.50;70.40;;;;;;5064708;28;20031;-66
2022/10/12 01:34:03;;;;;;;3.63;1.27;;;24.70;71.60;;;;;;5049650;28;20059;-67
2022/10/12 01:36:36;;;;;;;4.45;1.27;;;24.90;73.50;;;;;;5068539;28;20020;-67
2022/10/12 01:39:21;;;;;;;4.80;1.13;;;25.30;70.20;;;;;;5054710;28;20024;-67
2022/10/12 01:41:54;;;;;;;2.53;1.00;;;25.60;72.10;;;;;;5043864;28;20028;-65
2022/10/12 01:44:23;;;;;;;2.60;0.70;;;26.10;69.70;;;;;;5050055;28;20043;-65
2022/10/12 01:46:55;;;;;;;1.73;1.05;;;26.30;69.70;;;;;;5058786;28;20432;-65
2022/10/12 01:49:26;;;;;;;3.17;1.08;;;26.50;68.00;;;;;;5048258;28;20802;-65
2022/10/12 01:52:00;;;;;;;2.65;1.00;;;26.40;66.50;;;;;;5055619;28;20029;-64
2022/10/12 01:54:48;;;;;;;3.17;1.10;;;26.30;65.30;;;;;;5066913;28;20039;-64
2022/10/12 01:57:52;;;;;;;1.75;0.77;;;26.30;62.90;;;;;;5066080;28;20028;-64
2022/10/12 02:00:20;;;;;;;4.90;1.13;;;25.70;65.80;;;;;;5036483;28;20090;-64
2022/10/12 02:03:07;;;;;;;4.20;1.75;;;25.30;63.70;;;;;;5044987;28;20036;-65
2022/10/12 02:05:49;;;;;;;2.55;0.98;;;24.30;68.00;;;;;;5047373;28;20036;-64
2022/10/12 02:08:30;;;;;;;3.30;0.90;;;22.70;76.40;;;;;;5044990;28;20032;-64
2022/10/12 02:11:15;;;;;;;4.07;1.30;;;21.80;82.30;;;;;;5045886;28;20794;-63
2022/10/12 02:14:27;;;;;;;6.28;1.75;;;21.20;86.50;;;;;;5052402;28;20021;-63
2022/10/12 02:17:01;;;;;;;4.28;1.50;;;20.70;89.50;;;;;;5060440;28;20035;-63
2022/10/12 02:19:36;;;;;;;7.32;1.77;;;20.20;90.90;;;;;;5073302;28;20090;-62
2022/10/12 02:22:08;;;;;;;4.82;1.52;;;19.80;91.90;;;;;;5045438;28;20036;-63
2022/10/12 02:24:38;;;;;;;4.22;1.58;;;19.50;92.80;;;;;;5051567;28;20037;-62
2022/10/12 02:27:09;;;;;;;3.25;1.00;;;19.40;93.50;;;;;;5053792;28;20021;-62
2022/10/12 02:29:39;;;;;;;1.85;0.82;;;19.30;93.90;;;;;;5050474;28;20086;-62
2022/10/12 02:32:17;;;;;;;4.85;1.00;;;19.50;93.20;;;;;;5052687;28;20043;-62
2022/10/12 02:35:29;;;;;;;3.72;1.05;;;19.40;93.30;;;;;;5062866;28;20528;-62
2022/10/12 02:38:26;;;;;;;3.85;0.98;;;19.40;93.40;;;;;;5026443;28;20029;-61
2022/10/12 02:41:02;;;;;;;5.38;1.45;;;19.70;93.30;;;;;;5019335;28;20068;-62
2022/10/12 02:43:55;;;;;;;6.18;1.30;;;19.80;93.40;;;;;;5041381;28;20095;-62
2022/10/12 02:46:25;;;;;;;2.90;1.13;;;20.20;92.60;;;;;;5036656;28;20021;-66
2022/10/12 02:48:55;;;;;;;5.57;1.98;;;20.50;90.80;;;;;;5060868;28;20724;-65
2022/10/12 02:51:24;;;;;;;3.40;0.93;;;20.60;90.00;;;;;;5050889;28;20048;-62
2022/10/12 02:53:53;;;;;;;3.50;0.75;;;20.80;88.70;;;;;;5052094;28;20032;-62
2022/10/12 02:56:20;;;;;;;2.75;0.90;;;20.90;89.60;;;;;;5058215;28;20053;-62
2022/10/12 02:58:48;;;;;;;6.57;1.08;;;20.90;90.20;;;;;;5047368;28;20366;-62
2022/10/12 03:01:16;;;;;;;5.00;1.25;;;21.10;89.20;;;;;;5049781;28;20029;-62
2022/10/12 03:03:45;;;;;;;1.77;0.70;;;21.30;89.80;;;;;;5046234;28;20503;-63
2022/10/12 03:06:12;;;;;;;2.40;1.10;;;21.60;86.30;;;;;;5062699;28;20019;-62
2022/10/12 03:08:40;;;;;;;2.72;0.98;;;21.70;85.70;;;;;;5040937;28;20512;-62
2022/10/12 03:11:11;;;;;;;2.53;1.10;;;21.80;87.00;;;;;;5059792;28;20028;-62
2022/10/12 03:13:38;;;;;;;8.07;1.10;;;21.90;85.10;;;;;;5067436;28;20024;-63
2022/10/12 03:16:10;;;;;;;2.30;0.90;;;22.10;83.00;;;;;;5054308;28;20073;-63
2022/10/12 03:18:38;;;;;;;3.22;0.98;;;22.30;82.20;;;;;;5057459;28;20028;-63
2022/10/12 03:21:05;;;;;;;1.75;0.80;;;22.40;80.40;;;;;;5053398;28;20021;-60
2022/10/12 03:23:33;;;;;;;1.02;0.60;;;22.40;78.70;;;;;;5050520;28;20558;-60
2022/10/12 03:26:01;;;;;;;4.15;1.20;;;22.40;80.50;;;;;;5049465;28;20064;-60
2022/10/12 03:28:28;;;;;;;3.20;0.80;;;22.60;80.00;;;;;;5045465;28;20017;-60
2022/10/12 03:30:55;;;;;;;4.93;1.10;;;22.50;78.10;;;;;;5057816;28;20025;-60
2022/10/12 03:33:23;;;;;;;2.50;1.13;;;22.70;77.90;;;;;;5049318;28;20049;-62
2022/10/12 03:35:51;;;;;;;3.10;1.45;;;22.50;75.00;;;;;;5050530;28;20023;-61
2022/10/12 03:38:19;;;;;;;2.75;1.17;;;22.40;75.60;;;;;;5059449;28;20029;-62
2022/10/12 03:40:47;;;;;;;2.85;1.08;;;22.40;76.50;;;;;;5059451;28;20073;-61
2022/10/12 03:43:16;;;;;;;3.40;1.05;;;22.80;76.90;;;;;;5054095;28;20521;-61
2022/10/12 03:45:43;;;;;;;3.03;1.05;;;23.20;73.90;;;;;;5053818;28;20029;-61
2022/10/12 03:48:10;;;;;;;5.43;1.38;;;22.70;72.70;;;;;;5046544;28;20020;-63
2022/10/12 03:50:39;;;;;;;5.50;1.17;;;22.60;77.00;;;;;;5051201;28;20570;-62
2022/10/12 03:53:07;;;;;;;2.22;0.93;;;22.70;77.10;;;;;;5044698;28;20371;-62
2022/10/12 03:55:34;;;;;;;2.20;1.00;;;22.70;75.10;;;;;;5046912;28;20037;-61
2022/10/12 03:58:01;;;;;;;3.47;1.17;;;22.40;76.20;;;;;;5064568;28;20017;-61
2022/10/12 04:00:29;;;;;;;4.13;1.38;;;22.40;76.00;;;;;;5047532;28;20032;-62
2022/10/12 04:02:56;;;;;;;7.07;1.58;;;22.30;77.70;;;;;;5047951;28;20028;-62
2022/10/12 04:05:23;;;;;;;7.63;1.38;;;22.20;78.60;;;;;;5049049;28;20036;-62
2022/10/12 04:07:57;;;;;;;3.40;1.67;;;21.70;81.00;;;;;;5075628;28;20028;-63
2022/10/12 04:10:25;;;;;;;2.28;1.10;;;21.30;83.20;;;;;;5042247;28;20508;-63
2022/10/12 04:12:52;;;;;;;9.10;1.15;;;21.10;85.80;;;;;;5048303;28;20040;-62
2022/10/12 04:15:20;;;;;;;7.20;1.40;;;20.90;85.90;;;;;;5058567;28;20043;-63
2022/10/12 04:17:47;;;;;;;4.57;1.70;;;20.80;87.00;;;;;;5044675;28;20021;-63
2022/10/12 04:20:14;;;;;;;8.15;2.00;;;20.80;86.40;;;;;;5046475;28;20029;-62
2022/10/12 04:22:42;;;;;;;4.93;1.45;;;20.90;86.60;;;;;;5048450;28;20025;-63
2022/10/12 04:25:11;;;;;;;3.50;1.38;;;20.90;85.80;;;;;;5047298;28;20029;-62
2022/10/12 04:27:38;;;;;;;6.18;1.23;;;20.90;85.30;;;;;;5051860;28;20497;-63
2022/10/12 04:30:06;;;;;;;3.90;1.67;;;20.80;84.40;;;;;;5064395;28;20021;-63
2022/10/12 04:32:33;;;;;;;5.45;1.80;;;20.60;86.20;;;;;;5055081;28;20078;-63
2022/10/12 04:35:00;;;;;;;3.85;1.48;;;20.60;86.00;;;;;;5043361;28;20731;-64
2022/10/12 04:37:28;;;;;;;3.75;1.90;;;20.60;86.80;;;;;;5045838;28;20044;-63
2022/10/12 04:39:55;;;;;;;3.38;1.67;;;20.70;85.70;;;;;;5049479;28;20024;-62
2022/10/12 04:42:23;;;;;;;3.13;1.20;;;20.60;86.70;;;;;;5044087;28;20029;-63
2022/10/12 04:44:50;;;;;;;7.78;1.98;;;20.60;85.20;;;;;;5040192;28;20209;-62
2022/10/12 04:47:17;;;;;;;3.65;1.77;;;20.60;85.60;;;;;;5042867;28;20078;-63
2022/10/12 04:49:45;;;;;;;4.97;1.75;;;20.60;85.40;;;;;;5048831;28;20510;-63
2022/10/12 04:52:12;;;;;;;3.38;1.83;;;20.70;85.80;;;;;;5055065;28;20063;-62
2022/10/12 04:54:39;;;;;;;8.40;1.40;;;20.70;84.80;;;;;;5059857;28;20103;-64
2022/10/12 04:57:06;;;;;;;5.70;2.30;;;20.70;84.30;;;;;;5050851;28;20500;-62
2022/10/12 04:59:34;;;;;;;5.13;1.60;;;20.70;83.80;;;;;;5050551;28;20059;-63
2022/10/12 05:02:01;;;;;;;4.60;1.85;;;20.60;84.60;;;;;;5054676;28;20021;-63
2022/10/12 05:04:28;;;;;;;4.72;1.58;;;20.60;85.00;;;;;;5050682;28;20116;-62
2022/10/12 05:06:56;;;;;;;5.20;1.60;;;20.40;84.60;;;;;;5056839;28;20025;-62
2022/10/12 05:09:23;;;;;;;4.45;1.65;;;20.40;85.70;;;;;;5067036;28;20488;-62
2022/10/12 05:11:50;;;;;;;4.72;2.03;;;20.30;85.80;;;;;;5053709;28;20512;-63
2022/10/12 05:14:18;;;;;;;4.75;2.25;;;20.30;86.40;;;;;;5062340;28;20029;-62
2022/10/12 05:16:45;;;;;;;6.03;1.63;;;20.40;85.70;;;;;;5061314;28;20362;-62
2022/10/12 05:19:12;;;;;;;4.13;1.70;;;20.40;85.30;;;;;;5050257;28;20480;-62
2022/10/12 05:21:41;;;;;;;5.43;1.40;;;20.40;85.40;;;;;;5058593;28;20037;-62
2022/10/12 05:24:08;;;;;;;6.28;1.50;;;20.40;85.20;;;;;;5054665;28;20028;-62
2022/10/12 05:26:36;;;;;;;5.70;1.67;;;20.40;85.40;;;;;;5048307;28;20036;-62
2022/10/12 05:29:03;;;;;;;6.50;2.10;;;20.50;84.40;;;;;;5048467;28;20800;-62
2022/10/12 05:31:31;;;;;;;4.22;1.40;;;20.50;83.90;;;;;;5076608;28;20082;-61
2022/10/12 05:33:58;;;;;;;4.15;1.80;;;20.50;83.90;;;;;;5066803;28;20839;-62
2022/10/12 05:36:28;;;;;;;4.57;1.40;;;20.40;84.40;;;;;;5051859;28;20501;-63
2022/10/12 05:38:55;;;;;;;4.75;1.60;;;20.30;84.60;;;;;;5061056;28;20135;-63
2022/10/12 05:41:23;;;;;;;5.05;1.70;;;20.30;84.20;;;;;;5056385;28;20631;-64
2022/10/12 05:43:52;;;;;;;5.95;1.48;;;20.40;83.80;;;;;;5055419;28;20485;-64
2022/10/12 05:46:19;;;;;;;4.07;1.52;;;20.40;83.60;;;;;;5062645;28;20071;-64
2022/10/12 05:48:47;;;;;;;4.90;1.63;;;20.60;84.30;;;;;;5057866;28;20050;-64
2022/10/12 05:51:14;;;;;;;4.78;0.95;;;20.60;83.30;;;;;;5063705;28;20040;-63
2022/10/12 05:53:42;;;;;;;3.20;1.30;;;20.60;83.00;;;;;;5054066;28;20017;-64
2022/10/12 05:56:09;;;;;;;5.25;1.33;;;20.50;83.00;;;;;;5054052;28;20031;-65
2022/10/12 05:58:36;;;;;;;6.80;1.55;;;20.40;82.20;;;;;;5059474;28;20065;-65
2022/10/12 06:01:21;;;;;;;1.95;1.23;;;20.40;83.40;;;;;;5043790;28;20107;-63
2022/10/12 06:03:49;;;;;;;3.95;1.25;;;20.30;84.20;;;;;;5060149;28;20040;-64
2022/10/12 06:06:16;;;;;;;2.83;1.25;;;20.20;85.00;;;;;;5050847;28;20031;-64
2022/10/12 06:08:44;;;;;;;3.92;1.40;;;20.20;84.90;;;;;;5069086;28;20085;-64
2022/10/12 06:11:12;;;;;;;3.75;1.25;;;20.10;84.80;;;;;;5062547;28;20013;-63
2022/10/12 06:13:40;;;;;;;5.40;1.50;;;20.00;86.90;;;;;;5049261;28;20029;-64
2022/10/12 06:16:07;;;;;;;3.88;1.17;;;20.00;86.40;;;;;;5043853;28;20051;-66
2022/10/12 06:18:35;;;;;;;4.70;1.10;;;20.00;86.30;;;;;;5054873;28;20024;-66
2022/10/12 06:21:02;;;;;;;5.50;1.90;;;20.00;87.40;;;;;;5044949;28;20017;-67
2022/10/12 06:23:29;;;;;;;3.65;1.00;;;20.00;87.30;;;;;;5058183;28;20071;-64
2022/10/12 06:25:56;;;;;;;3.97;0.98;;;20.00;87.60;;;;;;5044693;28;20033;-59
2022/10/12 06:28:24;;;;;;;4.32;1.10;;;19.90;88.30;;;;;;5051960;28;21219;-59
2022/10/12 06:30:56;;;;;;;3.10;1.10;;;19.90;89.00;;;;;;5047208;28;20029;-58
2022/10/12 06:33:24;;;;;;;3.20;0.98;;;19.80;89.00;;;;;;5053837;28;20090;-58
2022/10/12 06:35:52;;;;;;;3.35;1.02;;;19.80;89.50;;;;;;5046464;28;20105;-57
2022/10/12 06:38:20;;;;;;;3.22;1.08;;;19.70;88.70;;;;;;5046985;28;20550;-59
2022/10/12 06:40:47;;;;;;;3.85;1.35;;;19.60;88.50;;;;;;5047636;28;20482;-59
2022/10/12 06:43:14;;;;;;;6.32;1.40;;;19.50;89.20;;;;;;5044271;28;20037;-59
2022/10/12 06:45:42;;;;;;;7.13;1.35;;;19.30;88.80;;;;;;5046220;28;20021;-59
2022/10/12 06:48:10;;;;;;;4.63;1.10;;;19.20;89.30;;;;;;5046245;28;20027;-59
2022/10/12 06:50:37;;;;;;;7.07;1.33;;;19.10;89.80;;;;;;5047596;28;20505;-59
2022/10/12 06:53:05;;;;;;;4.35;1.90;;;19.10;89.90;;;;;;5048367;28;20070;-59
2022/10/12 06:55:32;;;;;;;5.30;1.02;;;19.00;90.20;;;;;;5047079;28;20095;-60
2022/10/12 06:57:59;;;;;;;3.58;1.38;;;19.00;89.80;;;;;;5043233;28;20024;-59
2022/10/12 07:00:27;;;;;;;4.45;1.20;;;19.00;90.00;;;;;;5044881;28;20083;-59
2022/10/12 07:02:54;;;;;;;3.65;0.90;;;18.90;90.10;;;;;;5048221;28;20166;-59
2022/10/12 07:05:23;;;;;;;4.63;1.65;;;18.80;89.40;;;;;;5047821;28;20056;-59
2022/10/12 07:07:50;;;;;;;3.80;1.17;;;18.70;89.70;;;;;;5047568;28;20021;-59
2022/10/12 07:10:18;;;;;;;3.80;1.17;;;18.60;89.70;;;;;;5048581;28;20037;-59
2022/10/12 07:12:45;;;;;;;2.88;1.10;;;18.60;89.90;;;;;;5048894;28;20016;-59
2022/10/12 07:15:12;;;;;;;5.07;1.35;;;18.50;90.10;;;;;;5047180;28;20367;-59
2022/10/12 07:17:40;;;;;;;4.45;0.80;;;18.50;90.50;;;;;;5046706;28;20024;-59
2022/10/12 07:20:07;;;;;;;7.05;1.00;;;18.40;90.70;;;;;;5048292;28;20108;-59
2022/10/12 07:22:35;;;;;;;4.80;0.80;;;18.30;90.10;;;;;;5047377;28;20021;-58
2022/10/12 07:25:02;;;;;;;2.28;1.05;;;18.30;90.40;;;;;;5049248;28;20371;-59
2022/10/12 07:27:30;;;;;;;4.15;0.77;;;18.20;90.10;;;;;;5049155;28;20028;-59
2022/10/12 07:29:57;;;;;;;4.57;1.33;;;18.10;90.10;;;;;;5064643;28;20025;-59
2022/10/12 07:32:24;;;;;;;4.63;1.00;;;18.10;90.10;;;;;;5049280;28;20017;-59
2022/10/12 07:34:52;;;;;;;4.00;0.95;;;18.00;90.10;;;;;;5048512;28;20107;-59
2022/10/12 07:37:19;;;;;;;1.92;0.50;;;17.90;90.30;;;;;;5047864;28;20075;-59
2022/10/12 07:39:47;;;;;;;5.43;0.90;;;17.90;90.60;;;;;;5055372;28;20109;-59
2022/10/12 07:42:14;;;;;;;4.93;0.80;;;17.80;90.60;;;;;;5056034;28;20077;-58
2022/10/12 07:44:42;;;;;;;4.60;0.80;;;17.80;90.40;;;;;;5062636;28;20546;-60
2022/10/12 07:47:09;;;;;;;3.70;0.80;;;17.70;90.70;;;;;;5061343;28;20561;-57
2022/10/12 07:49:36;;;;;;;2.45;0.65;;;17.60;90.80;;;;;;5056437;28;20044;-59
2022/10/12 07:52:04;;;;;;;5.47;1.00;;;17.60;91.00;;;;;;5057849;28;20016;-58
2022/10/12 07:54:31;;;;;;;4.30;0.80;;;17.50;90.90;;;;;;5063499;28;20494;-59
2022/10/12 07:56:59;;;;;;;4.30;1.60;;;17.50;91.10;;;;;;5069460;28;20044;-58
2022/10/12 07:59:26;;;;;;;2.22;0.77;;;17.40;91.30;;;;;;5055806;28;20049;-57
2022/10/12 08:01:54;;;;;;;4.90;0.82;;;17.30;91.80;;;;;;5055429;28;20028;-59
2022/10/12 08:04:21;;;;;;;4.60;0.82;;;17.30;91.90;;;;;;5054576;28;20025;-58
2022/10/12 08:06:48;;;;;;;5.57;1.98;;;17.20;92.00;;;;;;5058577;28;20036;-62
2022/10/12 08:09:15;;;;;;;3.83;0.90;;;17.20;92.40;;;;;;5060313;28;20090;-58
2022/10/12 08:11:43;;;;;;;5.47;0.95;;;17.20;92.70;;;;;;5053546;28;20048;-65
2022/10/12 08:14:15;;;;;;;3.40;0.75;;;17.10;93.10;;;;;;5051626;28;20029;-60
2022/10/12 08:16:43;;;;;;;4.78;1.30;;;17.10;93.30;;;;;;5042208;28;20025;-61
2022/10/12 08:19:11;;;;;;;3.55;0.75;;;17.00;93.60;;;;;;5045005;28;20396;-60
2022/10/12 08:21:40;;;;;;;4.10;1.00;;;16.90;93.70;;;;;;5060821;28;20116;-61
2022/10/12 08:24:07;;;;;;;4.47;1.30;;;16.90;94.10;;;;;;5072867;28;20040;-60
2022/10/12 08:26:35;;;;;;;6.65;2.35;;;16.80;94.40;;;;;;5045750;28;20052;-61
2022/10/12 08:29:04;;;;;;;6.78;1.13;;;16.80;94.60;;;;;;5048048;28;20386;-65
2022/10/12 08:31:31;;;;;;;5.32;1.25;;;16.70;94.90;;;;;;5049698;28;20029;-59
2022/10/12 08:33:59;;;;;;;6.95;1.38;;;16.70;95.30;;;;;;5063338;28;20021;-60
2022/10/12 08:36:27;;;;;;;4.20;0.85;;;16.60;95.50;;;;;;5056048;28;20028;-60
2022/10/12 08:38:55;;;;;;;5.78;1.05;;;16.60;95.80;;;;;;5062065;28;20025;-60
2022/10/12 08:41:40;;;;;;;9.27;1.48;;;16.60;95.90;;;;;;5050045;28;20029;-59
2022/10/12 08:44:44;;;;;;;4.10;0.98;;;16.60;96.00;;;;;;5037607;28;20037;-60
2022/10/12 08:47:24;;;;;;;6.75;1.50;;;16.60;96.20;;;;;;5047089;28;20029;-60
2022/10/12 08:49:53;;;;;;;8.55;1.75;;;16.50;96.60;;;;;;5047447;28;20530;-60
2022/10/12 08:52:27;;;;;;;5.80;1.00;;;16.50;97.10;;;;;;5049439;28;20043;-60
2022/10/12 08:55:00;;;;;;;10.18;2.05;;;16.50;97.20;;;;;;5055939;28;20021;-60
2022/10/12 08:57:27;;;;;;;8.88;1.48;;;16.50;97.40;;;;;;5052490;28;20036;-60
2022/10/12 08:59:55;;;;;;;3.97;0.90;;;16.50;97.50;;;;;;5041904;28;20084;-61
2022/10/12 09:02:41;;;;;;;5.50;0.95;;;16.40;97.70;;;;;;5047848;28;20037;-59
2022/10/12 09:05:14;;;;;;;9.75;1.20;;;16.40;98.10;;;;;;5044951;28;20071;-60
2022/10/12 09:07:54;;;;;;;8.53;1.00;;;16.40;98.30;;;;;;5049887;28;20025;-60
2022/10/12 09:10:34;;;;;;;2.05;0.95;;;16.40;98.40;;;;;;5045773;28;21114;-60
2022/10/12 09:13:32;;;;;;;5.80;1.00;;;16.40;98.40;;;;;;5049291;28;20025;-59
2022/10/12 09:16:24;;;;;;;10.70;2.67;;;16.40;98.50;;;;;;5039308;28;20074;-60
2022/10/12 09:19:15;;;;;;;9.88;1.10;;;16.30;98.50;;;;;;5046624;28;20071;-59
2022/10/12 09:21:44;;;;;;;13.13;1.88;;;16.20;98.90;;;;;;5043516;28;20033;-60
2022/10/12 09:24:23;;;;;;;6.55;0.95;;;16.20;99.30;;;;;;5045997;28;20159;-60
2022/10/12 09:26:53;;;;;;;6.38;1.35;;;16.10;99.50;;;;;;5052204;28;20032;-59
2022/10/12 09:29:25;;;;;;;5.07;0.88;;;16.10;99.50;;;;;;5061743;28;20033;-60
2022/10/12 09:32:21;;;;;;;11.43;1.08;;;16.10;99.60;;;;;;5058888;28;20033;-60
2022/10/12 09:34:49;;;;;;;10.82;1.38;;;16.10;99.70;;;;;;5043458;28;20037;-58
2022/10/12 09:37:23;;;;;;;8.57;1.05;;;16.00;99.70;;;;;;5049186;28;20091;-59
2022/10/12 09:39:50;;;;;;;5.10;0.85;;;15.90;99.90;;;;;;5049871;28;20177;-59
2022/10/12 09:42:18;;;;;;;6.25;1.05;;;15.90;99.90;;;;;;5042328;28;20029;-59
2022/10/12 09:44:53;;;;;;;5.18;0.98;;;15.80;99.90;;;;;;5053072;28;20072;-58
2022/10/12 09:47:29;;;;;;;5.32;0.85;;;15.80;99.90;;;;;;5044960;28;20478;-59
2022/10/12 09:49:58;;;;;;;10.68;1.45;;;15.70;99.90;;;;;;5046350;28;20057;-59
2022/10/12 09:52:31;;;;;;;7.13;1.10;;;15.70;99.90;;;;;;5047010;28;20031;-58
2022/10/12 09:55:02;;;;;;;7.20;1.27;;;15.60;99.90;;;;;;5048089;28;20021;-59
2022/10/12 09:57:33;;;;;;;4.03;1.05;;;15.60;99.90;;;;;;5064576;28;20397;-59
2022/10/12 10:00:05;;;;;;;5.63;1.38;;;15.60;99.90;;;;;;5031168;28;20106;-59
2022/10/12 10:02:33;;;;;;;4.97;1.35;;;15.60;99.90;;;;;;5050683;28;20050;-64
2022/10/12 10:05:35;;;;;;;5.38;1.00;;;15.50;99.90;;;;;;5054965;28;20032;-59
2022/10/12 10:08:22;;;;;;;5.40;1.20;;;15.60;99.90;;;;;;5045940;28;20028;-66
2022/10/12 10:10:55;;;;;;;9.35;2.08;;;15.60;99.90;;;;;;5052845;28;20036;-58
2022/10/12 10:13:29;;;;;;;4.30;2.05;;;15.50;99.90;;;;;;5047290;28;20017;-60
2022/10/12 10:16:08;;;;;;;7.72;1.10;;;15.60;99.90;;;;;;5044127;28;20025;-60
2022/10/12 10:18:48;;;;;;;6.60;1.10;;;15.60;99.90;;;;;;5055292;28;20033;-59
2022/10/12 10:21:29;;;;;;;9.65;1.55;;;15.60;99.90;;;;;;5040263;28;20333;-59
2022/10/12 10:24:03;;;;;;;15.68;2.67;;;15.50;99.90;;;;;;5040116;28;20041;-59
2022/10/12 10:26:55;;;;;;;8.27;1.00;;;15.50;99.90;;;;;;5056091;28;20024;-59
2022/10/12 10:29:22;;;;;;;3.60;0.70;;;15.40;99.90;;;;;;5053964;28;20503;-59
2022/10/12 10:32:10;;;;;;;7.28;0.98;;;15.40;99.90;;;;;;5047421;28;20388;-58
2022/10/12 10:34:40;;;;;;;4.35;0.90;;;15.30;99.90;;;;;;5057968;28;20067;-59
2022/10/12 10:37:14;;;;;;;3.80;1.10;;;15.20;99.90;;;;;;5056236;28;20025;-59
2022/10/12 10:39:49;;;;;;;9.93;1.50;;;15.20;99.90;;;;;;5050340;28;20477;-58
2022/10/12 10:42:31;;;;;;;8.82;1.90;;;15.20;99.90;;;;;;5044750;28;20075;-59
2022/10/12 10:45:07;;;;;;;4.60;1.35;;;15.20;99.90;;;;;;5044141;28;20047;-60
2022/10/12 10:47:45;;;;;;;4.57;1.20;;;15.20;99.90;;;;;;5052988;28;20504;-60
2022/10/12 10:50:26;;;;;;;6.28;1.27;;;15.20;99.90;;;;;;5040819;28;20498;-58
2022/10/12 10:53:03;;;;;;;6.75;1.90;;;15.20;99.90;;;;;;5041267;28;20025;-58
2022/10/12 10:55:56;;;;;;;10.15;2.13;;;15.10;99.90;;;;;;5050206;28;20032;-59
2022/10/12 10:58:45;;;;;;;4.20;1.38;;;15.10;99.90;;;;;;5043773;28;20140;-59
2022/10/12 11:01:36;;;;;;;5.53;1.50;;;15.00;99.90;;;;;;5046030;28;20551;-58
2022/10/12 11:04:16;;;;;;;4.65;1.00;;;15.00;99.90;;;;;;5043162;28;20028;-59
2022/10/12 11:07:00;;;;;;;4.03;1.20;;;15.00;99.90;;;;;;5055841;28;20025;-60
2022/10/12 11:09:41;;;;;;;8.32;1.20;;;14.90;99.90;;;;;;5061532;28;20074;-60
2022/10/12 11:12:21;;;;;;;4.38;1.55;;;14.80;99.90;;;;;;5041947;28;20119;-60
2022/10/12 11:14:54;;;;;;;7.65;1.10;;;14.80;99.90;;;;;;5057671;28;20032;-59
2022/10/12 11:17:31;;;;;;;3.15;0.95;;;14.80;99.90;;;;;;5048917;28;20033;-59
2022/10/12 11:20:27;;;;;;;6.25;1.15;;;14.80;99.90;;;;;;5042472;28;20013;-58
2022/10/12 11:23:02;;;;;;;3.55;1.20;;;14.70;99.90;;;;;;5050972;28;20120;-59
2022/10/12 11:25:55;;;;;;;6.80;0.93;;;14.70;99.90;;;;;;5043930;28;20045;-59
2022/10/12 11:28:27;;;;;;;6.13;1.10;;;14.70;99.90;;;;;;5043497;28;20075;-59
2022/10/12 11:30:55;;;;;;;4.22;1.30;;;14.60;99.90;;;;;;5047612;28;20055;-59
2022/10/12 11:33:43;;;;;;;4.95;1.27;;;14.60;99.90;;;;;;5048452;28;20797;-59
2022/10/12 11:36:18;;;;;;;4.88;0.90;;;14.50;99.90;;;;;;5068346;28;20024;-59
2022/10/12 11:38:56;;;;;;;3.78;1.50;;;14.40;99.90;;;;;;5056109;28;20147;-58
2022/10/12 11:41:45;;;;;;;7.85;1.38;;;14.40;99.90;;;;;;5056142;28;20040;-59
2022/10/12 11:44:40;;;;;;;2.92;1.15;;;14.40;99.90;;;;;;5045883;28;20044;-58
2022/10/12 11:47:24;;;;;;;8.35;1.45;;;14.40;99.90;;;;;;5046427;28;20028;-59
2022/10/12 11:50:03;;;;;;;5.13;0.90;;;14.30;99.90;;;;;;5057064;28;20378;-59
2022/10/12 11:52:52;;;;;;;7.25;1.45;;;14.30;99.90;;;;;;5049156;28;20117;-58
2022/10/12 11:55:34;;;;;;;4.55;1.10;;;14.20;99.90;;;;;;5044750;28;20445;-59
2022/10/12 11:58:16;;;;;;;6.07;1.00;;;14.20;99.90;;;;;;5047500;28;20071;-59
2022/10/12 12:01:05;;;;;;;4.25;0.98;;;14.10;99.90;;;;;;5045990;28;20122;-61
2022/10/12 12:04:07;;;;;;;4.47;1.20;;;14.00;99.90;;;;;;5037044;28;20037;-61
2022/10/12 12:06:34;;;;;;;4.47;0.90;;;14.00;99.90;;;;;;5041012;28;20022;-59
2022/10/12 12:09:02;;;;;;;8.13;1.20;;;13.90;99.90;;;;;;5044730;28;20064;-59
2022/10/12 12:11:32;;;;;;;7.72;1.27;;;13.90;99.90;;;;;;5045929;28;20025;-59
2022/10/12 12:14:20;;;;;;;9.15;1.30;;;13.80;99.90;;;;;;5048445;28;20036;-58
2022/10/12 12:17:11;;;;;;;3.40;0.93;;;13.80;99.90;;;;;;5056550;28;20028;-59
2022/10/12 12:19:41;;;;;;;4.60;1.40;;;13.80;99.90;;;;;;5045017;28;20038;-59
2022/10/12 12:22:30;;;;;;;7.40;1.60;;;13.80;99.90;;;;;;5042687;28;20032;-59
2022/10/12 12:25:03;;;;;;;5.18;1.15;;;13.70;99.90;;;;;;5040327;28;20044;-59
2022/10/12 12:27:47;;;;;;;8.20;1.13;;;13.70;99.90;;;;;;5050958;28;20025;-59
2022/10/12 12:30:23;;;;;;;3.38;1.27;;;13.70;99.90;;;;;;5054288;28;20029;-61
2022/10/12 12:33:27;;;;;;;3.20;1.27;;;13.60;99.90;;;;;;5057822;28;20021;-59
2022/10/12 12:36:05;;;;;;;5.53;0.93;;;13.60;99.90;;;;;;5033733;28;20435;-60
2022/10/12 12:38:46;;;;;;;9.35;1.27;;;13.50;99.90;;;;;;5055835;28;20355;-60
2022/10/12 12:41:19;;;;;;;2.45;1.17;;;13.50;99.90;;;;;;5039830;28;20018;-59
2022/10/12 12:43:59;;;;;;;4.63;1.20;;;13.40;99.90;;;;;;5054565;28;20029;-59
2022/10/12 12:46:52;;;;;;;3.83;0.95;;;13.40;99.90;;;;;;5060228;28;20363;-61
2022/10/12 12:49:59;;;;;;;3.45;0.93;;;13.30;99.90;;;;;;5045456;28;20049;-59
2022/10/12 12:52:38;;;;;;;4.57;1.10;;;13.30;99.90;;;;;;5039747;28;20145;-59
2022/10/12 12:55:29;;;;;;;5.28;1.63;;;13.20;99.90;;;;;;5055634;28;20021;-59
2022/10/12 12:58:22;;;;;;;5.15;1.20;;;13.10;99.90;;;;;;5050545;28;20580;-59
2022/10/12 13:01:14;;;;;;;6.28;1.02;;;13.00;99.90;;;;;;5066870;28;20120;-59
2022/10/12 13:03:57;;;;;;;5.45;0.88;;;12.90;99.90;;;;;;5052729;28;20032;-59
2022/10/12 13:06:36;;;;;;;4.15;0.80;;;12.90;99.90;;;;;;5052355;28;20028;-59
2022/10/12 13:09:12;;;;;;;4.15;1.17;;;12.90;99.90;;;;;;5058905;28;20581;-59
2022/10/12 13:11:57;;;;;;;13.15;1.20;;;12.90;99.90;;;;;;5049280;28;20029;-59
2022/10/12 13:14:44;;;;;;;4.68;1.08;;;12.80;99.90;;;;;;5048000;28;20085;-59
2022/10/12 13:17:39;;;;;;;4.05;1.02;;;12.70;99.90;;;;;;5051555;28;20029;-59